Fecha, hora, temperatura, viento dirección y velocidad, humedad y presión.

  • 16-01-2019 16:00:00 | 12.40°C | Noroeste |6.00 km/h | 35.00% | 0.00 hPa
  • 16-01-2019 15:00:00 | 13.30°C | Noroeste |6.00 km/h | 33.00% | 0.00 hPa
  • 16-01-2019 14:00:00 | 12.80°C | Noroeste |4.00 km/h | 33.00% | 0.00 hPa
  • 16-01-2019 13:00:00 | 13.40°C | Sudeste |2.00 km/h | 34.00% | 0.00 hPa
  • 16-01-2019 12:00:00 | 9.60°C | Sudeste |4.00 km/h | 36.00% | 0.00 hPa
  • 16-01-2019 11:00:00 | 6.50°C | Sudeste |4.00 km/h | 40.00% | 0.00 hPa
  • 16-01-2019 10:00:00 | 2.00°C | Nordeste |3.00 km/h | 48.00% | 0.00 hPa
  • 16-01-2019 09:00:00 | -0.80°C | Calma |0.00 km/h | 51.00% | 0.00 hPa
  • 16-01-2019 08:00:00 | 1.50°C | Nordeste |8.00 km/h | 45.00% | 0.00 hPa
  • 16-01-2019 07:00:00 | 0.10°C | Nordeste |4.00 km/h | 47.00% | 0.00 hPa
  • 16-01-2019 06:00:00 | 0.40°C | Nordeste |5.00 km/h | 46.00% | 0.00 hPa
  • 16-01-2019 05:00:00 | -0.20°C | Nordeste |4.00 km/h | 48.00% | 0.00 hPa
  • 16-01-2019 04:00:00 | -0.30°C | Sur |4.00 km/h | 49.00% | 0.00 hPa
  • 16-01-2019 03:00:00 | 0.10°C | Calma |0.00 km/h | 47.00% | 0.00 hPa
  • 16-01-2019 02:00:00 | 0.70°C | Calma |0.00 km/h | 47.00% | 0.00 hPa
  • 16-01-2019 01:00:00 | 0.80°C | Sudeste |3.00 km/h | 47.00% | 0.00 hPa
  • 16-01-2019 00:00:00 | 0.30°C | Nordeste |10.00 km/h | 49.00% | 0.00 hPa
  • 15-01-2019 23:00:00 | 1.40°C | Calma |0.00 km/h | 47.00% | 0.00 hPa
  • 15-01-2019 22:00:00 | 2.30°C | Nordeste |6.00 km/h | 44.00% | 0.00 hPa
  • 15-01-2019 21:00:00 | 3.00°C | Nordeste |7.00 km/h | 44.00% | 0.00 hPa
  • 15-01-2019 20:00:00 | 3.70°C | Nordeste |5.00 km/h | 44.00% | 0.00 hPa
  • 15-01-2019 19:00:00 | 4.90°C | Nordeste |10.00 km/h | 42.00% | 0.00 hPa
  • 15-01-2019 18:00:00 | 7.50°C | Calma |0.00 km/h | 37.00% | 0.00 hPa
  • 15-01-2019 17:00:00 | 13.00°C | Oeste |2.00 km/h | 31.00% | 0.00 hPa
    • diseño web asturias Información sobre el estado de las mareas, altura de la marejada, temperatura del agua y otros datos de Gijón en Asturias.

      Surf Gijón